sensor_id;sensor_type;location;lat;lon;timestamp;P1;durP1;ratioP1;P2;durP2;ratioP2
9034;SDS011;4552;43.422;24.592;2022-11-10T00:01:02;20.70;;;11.33;;
9034;SDS011;4552;43.422;24.592;2022-11-10T00:03:31;19.20;;;11.50;;
9034;SDS011;4552;43.422;24.592;2022-11-10T00:06:00;20.80;;;11.73;;
9034;SDS011;4552;43.422;24.592;2022-11-10T00:08:28;20.03;;;12.50;;
9034;SDS011;4552;43.422;24.592;2022-11-10T00:10:57;18.13;;;12.33;;
9034;SDS011;4552;43.422;24.592;2022-11-10T00:13:26;22.33;;;12.47;;
9034;SDS011;4552;43.422;24.592;2022-11-10T00:15:59;20.70;;;12.87;;
9034;SDS011;4552;43.422;24.592;2022-11-10T00:18:44;21.93;;;13.70;;
9034;SDS011;4552;43.422;24.592;2022-11-10T00:21:14;24.83;;;13.03;;
9034;SDS011;4552;43.422;24.592;2022-11-10T00:23:45;22.07;;;13.00;;
9034;SDS011;4552;43.422;24.592;2022-11-10T00:26:18;24.13;;;12.53;;
9034;SDS011;4552;43.422;24.592;2022-11-10T00:28:50;21.20;;;11.83;;
9034;SDS011;4552;43.422;24.592;2022-11-10T00:31:20;20.87;;;11.37;;
9034;SDS011;4552;43.422;24.592;2022-11-10T00:33:58;23.93;;;12.37;;
9034;SDS011;4552;43.422;24.592;2022-11-10T00:36:25;20.87;;;12.40;;
9034;SDS011;4552;43.422;24.592;2022-11-10T00:38:54;19.23;;;13.27;;
9034;SDS011;4552;43.422;24.592;2022-11-10T00:41:33;22.30;;;12.53;;
9034;SDS011;4552;43.422;24.592;2022-11-10T00:44:05;25.87;;;12.03;;
9034;SDS011;4552;43.422;24.592;2022-11-10T00:46:36;20.63;;;11.83;;
9034;SDS011;4552;43.422;24.592;2022-11-10T00:49:09;19.00;;;11.20;;
9034;SDS011;4552;43.422;24.592;2022-11-10T00:51:39;21.77;;;11.90;;
9034;SDS011;4552;43.422;24.592;2022-11-10T00:54:08;21.93;;;12.00;;
9034;SDS011;4552;43.422;24.592;2022-11-10T00:56:39;19.30;;;11.23;;
9034;SDS011;4552;43.422;24.592;2022-11-10T00:59:08;22.03;;;12.80;;
9034;SDS011;4552;43.422;24.592;2022-11-10T01:07:00;18.07;;;11.60;;
9034;SDS011;4552;43.422;24.592;2022-11-10T01:09:42;19.23;;;12.07;;
9034;SDS011;4552;43.422;24.592;2022-11-10T01:12:12;22.53;;;12.10;;
9034;SDS011;4552;43.422;24.592;2022-11-10T01:14:40;22.70;;;12.60;;
9034;SDS011;4552;43.422;24.592;2022-11-10T01:17:08;19.00;;;10.93;;
9034;SDS011;4552;43.422;24.592;2022-11-10T01:19:37;18.83;;;12.77;;
9034;SDS011;4552;43.422;24.592;2022-11-10T01:22:07;21.27;;;11.80;;
9034;SDS011;4552;43.422;24.592;2022-11-10T01:24:39;25.43;;;12.20;;
9034;SDS011;4552;43.422;24.592;2022-11-10T01:27:10;28.20;;;13.27;;
9034;SDS011;4552;43.422;24.592;2022-11-10T01:29:41;21.63;;;12.57;;
9034;SDS011;4552;43.422;24.592;2022-11-10T01:32:09;24.20;;;13.03;;
9034;SDS011;4552;43.422;24.592;2022-11-10T01:34:38;21.90;;;11.73;;
9034;SDS011;4552;43.422;24.592;2022-11-10T01:37:05;25.40;;;13.30;;
9034;SDS011;4552;43.422;24.592;2022-11-10T01:39:32;19.47;;;12.53;;
9034;SDS011;4552;43.422;24.592;2022-11-10T01:42:06;19.27;;;11.73;;
9034;SDS011;4552;43.422;24.592;2022-11-10T01:44:37;21.40;;;12.43;;
9034;SDS011;4552;43.422;24.592;2022-11-10T01:47:15;19.67;;;11.70;;
9034;SDS011;4552;43.422;24.592;2022-11-10T01:49:49;21.50;;;11.53;;
9034;SDS011;4552;43.422;24.592;2022-11-10T01:52:20;20.97;;;11.63;;
9034;SDS011;4552;43.422;24.592;2022-11-10T01:54:50;18.53;;;10.60;;
9034;SDS011;4552;43.422;24.592;2022-11-10T01:57:17;19.07;;;11.43;;
9034;SDS011;4552;43.422;24.592;2022-11-10T01:59:50;21.77;;;11.50;;
9034;SDS011;4552;43.422;24.592;2022-11-10T02:02:19;20.67;;;11.23;;
9034;SDS011;4552;43.422;24.592;2022-11-10T02:04:56;19.77;;;11.27;;
9034;SDS011;4552;43.422;24.592;2022-11-10T02:07:26;20.43;;;10.93;;
9034;SDS011;4552;43.422;24.592;2022-11-10T02:10:01;19.90;;;12.17;;
9034;SDS011;4552;43.422;24.592;2022-11-10T02:12:34;20.00;;;11.20;;
9034;SDS011;4552;43.422;24.592;2022-11-10T02:15:05;22.80;;;11.97;;
9034;SDS011;4552;43.422;24.592;2022-11-10T02:17:34;23.90;;;12.03;;
9034;SDS011;4552;43.422;24.592;2022-11-10T02:20:03;21.90;;;11.70;;
9034;SDS011;4552;43.422;24.592;2022-11-10T02:22:37;18.37;;;11.20;;
9034;SDS011;4552;43.422;24.592;2022-11-10T02:25:05;22.97;;;11.43;;
9034;SDS011;4552;43.422;24.592;2022-11-10T02:27:33;22.27;;;11.50;;
9034;SDS011;4552;43.422;24.592;2022-11-10T02:30:03;20.60;;;12.37;;
9034;SDS011;4552;43.422;24.592;2022-11-10T02:32:31;19.43;;;11.83;;
9034;SDS011;4552;43.422;24.592;2022-11-10T02:34:59;22.17;;;11.67;;
9034;SDS011;4552;43.422;24.592;2022-11-10T02:37:26;18.60;;;12.03;;
9034;SDS011;4552;43.422;24.592;2022-11-10T02:39:55;20.67;;;12.20;;
9034;SDS011;4552;43.422;24.592;2022-11-10T02:42:24;19.90;;;11.80;;
9034;SDS011;4552;43.422;24.592;2022-11-10T02:44:54;19.67;;;11.60;;
9034;SDS011;4552;43.422;24.592;2022-11-10T02:47:25;21.43;;;11.80;;
9034;SDS011;4552;43.422;24.592;2022-11-10T02:49:53;18.43;;;11.90;;
9034;SDS011;4552;43.422;24.592;2022-11-10T02:52:27;20.67;;;12.77;;
9034;SDS011;4552;43.422;24.592;2022-11-10T02:54:57;22.17;;;12.90;;
9034;SDS011;4552;43.422;24.592;2022-11-10T02:57:25;21.80;;;12.97;;
9034;SDS011;4552;43.422;24.592;2022-11-10T02:59:53;21.90;;;12.10;;
9034;SDS011;4552;43.422;24.592;2022-11-10T03:02:20;22.40;;;12.40;;
9034;SDS011;4552;43.422;24.592;2022-11-10T03:04:47;24.23;;;15.93;;
9034;SDS011;4552;43.422;24.592;2022-11-10T03:07:15;24.03;;;16.27;;
9034;SDS011;4552;43.422;24.592;2022-11-10T03:09:42;23.17;;;14.87;;
9034;SDS011;4552;43.422;24.592;2022-11-10T03:12:15;17.53;;;10.93;;
9034;SDS011;4552;43.422;24.592;2022-11-10T03:14:45;21.40;;;12.13;;
9034;SDS011;4552;43.422;24.592;2022-11-10T03:17:12;19.37;;;12.50;;
9034;SDS011;4552;43.422;24.592;2022-11-10T03:19:39;23.33;;;11.80;;
9034;SDS011;4552;43.422;24.592;2022-11-10T03:22:08;18.93;;;12.03;;
9034;SDS011;4552;43.422;24.592;2022-11-10T03:24:56;15.67;;;11.20;;
9034;SDS011;4552;43.422;24.592;2022-11-10T03:27:25;18.73;;;11.67;;
9034;SDS011;4552;43.422;24.592;2022-11-10T03:29:52;23.17;;;11.60;;
9034;SDS011;4552;43.422;24.592;2022-11-10T03:32:27;21.30;;;12.37;;
9034;SDS011;4552;43.422;24.592;2022-11-10T03:34:55;19.97;;;11.80;;
9034;SDS011;4552;43.422;24.592;2022-11-10T03:37:22;18.73;;;11.27;;
9034;SDS011;4552;43.422;24.592;2022-11-10T03:39:49;23.20;;;11.77;;
9034;SDS011;4552;43.422;24.592;2022-11-10T03:42:16;23.33;;;11.73;;
9034;SDS011;4552;43.422;24.592;2022-11-10T03:44:45;18.60;;;10.83;;
9034;SDS011;4552;43.422;24.592;2022-11-10T03:47:12;19.07;;;11.47;;
9034;SDS011;4552;43.422;24.592;2022-11-10T03:49:39;20.50;;;12.27;;
9034;SDS011;4552;43.422;24.592;2022-11-10T03:52:06;24.27;;;12.97;;
9034;SDS011;4552;43.422;24.592;2022-11-10T03:54:33;22.53;;;12.40;;
9034;SDS011;4552;43.422;24.592;2022-11-10T03:57:01;18.10;;;12.07;;
9034;SDS011;4552;43.422;24.592;2022-11-10T03:59:29;16.43;;;10.57;;
9034;SDS011;4552;43.422;24.592;2022-11-10T04:01:57;20.27;;;12.03;;
9034;SDS011;4552;43.422;24.592;2022-11-10T04:04:24;19.73;;;11.17;;
9034;SDS011;4552;43.422;24.592;2022-11-10T04:07:20;19.33;;;11.93;;
9034;SDS011;4552;43.422;24.592;2022-11-10T04:10:05;18.13;;;11.03;;
9034;SDS011;4552;43.422;24.592;2022-11-10T04:12:33;21.10;;;11.33;;
9034;SDS011;4552;43.422;24.592;2022-11-10T04:15:17;19.83;;;11.23;;
9034;SDS011;4552;43.422;24.592;2022-11-10T04:18:03;18.23;;;11.27;;
9034;SDS011;4552;43.422;24.592;2022-11-10T04:20:45;23.93;;;11.77;;
9034;SDS011;4552;43.422;24.592;2022-11-10T04:23:13;21.20;;;13.10;;
9034;SDS011;4552;43.422;24.592;2022-11-10T04:25:53;20.37;;;12.87;;
9034;SDS011;4552;43.422;24.592;2022-11-10T04:28:44;16.90;;;10.80;;
9034;SDS011;4552;43.422;24.592;2022-11-10T04:31:13;15.80;;;10.43;;
9034;SDS011;4552;43.422;24.592;2022-11-10T04:33:42;16.57;;;10.27;;
9034;SDS011;4552;43.422;24.592;2022-11-10T04:36:10;22.53;;;11.30;;
9034;SDS011;4552;43.422;24.592;2022-11-10T04:38:42;20.70;;;10.57;;
9034;SDS011;4552;43.422;24.592;2022-11-10T04:41:10;21.10;;;11.63;;
9034;SDS011;4552;43.422;24.592;2022-11-10T04:43:37;20.27;;;11.53;;
9034;SDS011;4552;43.422;24.592;2022-11-10T04:46:08;16.80;;;10.80;;
9034;SDS011;4552;43.422;24.592;2022-11-10T04:48:54;22.23;;;11.27;;
9034;SDS011;4552;43.422;24.592;2022-11-10T04:51:23;24.07;;;11.17;;
9034;SDS011;4552;43.422;24.592;2022-11-10T04:53:51;17.97;;;10.23;;
9034;SDS011;4552;43.422;24.592;2022-11-10T04:56:19;17.13;;;9.57;;
9034;SDS011;4552;43.422;24.592;2022-11-10T04:58:47;17.17;;;10.53;;
9034;SDS011;4552;43.422;24.592;2022-11-10T05:01:20;18.63;;;10.77;;
9034;SDS011;4552;43.422;24.592;2022-11-10T05:03:51;20.20;;;10.27;;
9034;SDS011;4552;43.422;24.592;2022-11-10T05:06:21;17.73;;;9.80;;
9034;SDS011;4552;43.422;24.592;2022-11-10T05:08:51;17.37;;;9.73;;
9034;SDS011;4552;43.422;24.592;2022-11-10T05:11:18;21.43;;;10.77;;
9034;SDS011;4552;43.422;24.592;2022-11-10T05:13:48;19.30;;;11.20;;
9034;SDS011;4552;43.422;24.592;2022-11-10T05:16:15;15.70;;;10.30;;
9034;SDS011;4552;43.422;24.592;2022-11-10T05:18:44;17.90;;;10.33;;
9034;SDS011;4552;43.422;24.592;2022-11-10T05:21:12;21.53;;;11.10;;
9034;SDS011;4552;43.422;24.592;2022-11-10T05:23:40;16.93;;;9.57;;
9034;SDS011;4552;43.422;24.592;2022-11-10T05:26:10;22.40;;;9.93;;
9034;SDS011;4552;43.422;24.592;2022-11-10T05:28:51;18.50;;;10.83;;
9034;SDS011;4552;43.422;24.592;2022-11-10T05:31:19;20.17;;;9.53;;
9034;SDS011;4552;43.422;24.592;2022-11-10T05:33:46;21.33;;;11.60;;
9034;SDS011;4552;43.422;24.592;2022-11-10T05:36:16;16.13;;;10.00;;
9034;SDS011;4552;43.422;24.592;2022-11-10T05:38:58;16.83;;;9.50;;
9034;SDS011;4552;43.422;24.592;2022-11-10T05:41:28;23.80;;;10.47;;
9034;SDS011;4552;43.422;24.592;2022-11-10T05:43:55;16.43;;;9.97;;
9034;SDS011;4552;43.422;24.592;2022-11-10T05:46:22;16.90;;;9.90;;
9034;SDS011;4552;43.422;24.592;2022-11-10T05:48:51;19.63;;;10.90;;
9034;SDS011;4552;43.422;24.592;2022-11-10T05:51:21;15.43;;;9.77;;
9034;SDS011;4552;43.422;24.592;2022-11-10T05:53:49;17.53;;;9.77;;
9034;SDS011;4552;43.422;24.592;2022-11-10T05:56:16;17.63;;;9.93;;
9034;SDS011;4552;43.422;24.592;2022-11-10T05:58:43;17.33;;;10.53;;
9034;SDS011;4552;43.422;24.592;2022-11-10T06:01:11;22.27;;;11.13;;
9034;SDS011;4552;43.422;24.592;2022-11-10T06:03:38;19.73;;;11.00;;
9034;SDS011;4552;43.422;24.592;2022-11-10T06:06:05;19.37;;;10.47;;
9034;SDS011;4552;43.422;24.592;2022-11-10T06:08:41;17.90;;;10.10;;
9034;SDS011;4552;43.422;24.592;2022-11-10T06:11:11;20.83;;;11.30;;
9034;SDS011;4552;43.422;24.592;2022-11-10T06:13:39;18.00;;;10.63;;
9034;SDS011;4552;43.422;24.592;2022-11-10T06:16:06;22.10;;;10.77;;
9034;SDS011;4552;43.422;24.592;2022-11-10T06:18:35;19.53;;;10.97;;
9034;SDS011;4552;43.422;24.592;2022-11-10T06:21:03;29.23;;;13.13;;
9034;SDS011;4552;43.422;24.592;2022-11-10T06:23:42;22.63;;;13.03;;
9034;SDS011;4552;43.422;24.592;2022-11-10T06:26:09;25.93;;;13.07;;
9034;SDS011;4552;43.422;24.592;2022-11-10T06:28:36;24.47;;;13.20;;
9034;SDS011;4552;43.422;24.592;2022-11-10T06:31:06;23.83;;;12.40;;
9034;SDS011;4552;43.422;24.592;2022-11-10T06:33:33;23.67;;;12.67;;
9034;SDS011;4552;43.422;24.592;2022-11-10T06:36:04;29.63;;;13.17;;
9034;SDS011;4552;43.422;24.592;2022-11-10T06:38:31;22.00;;;12.47;;
9034;SDS011;4552;43.422;24.592;2022-11-10T06:41:06;23.30;;;13.00;;
9034;SDS011;4552;43.422;24.592;2022-11-10T06:43:38;26.33;;;13.53;;
9034;SDS011;4552;43.422;24.592;2022-11-10T06:46:08;20.60;;;11.47;;
9034;SDS011;4552;43.422;24.592;2022-11-10T06:48:35;22.43;;;13.10;;
9034;SDS011;4552;43.422;24.592;2022-11-10T06:51:04;23.70;;;13.13;;
9034;SDS011;4552;43.422;24.592;2022-11-10T06:53:32;21.63;;;12.30;;
9034;SDS011;4552;43.422;24.592;2022-11-10T06:56:13;20.17;;;11.97;;
9034;SDS011;4552;43.422;24.592;2022-11-10T06:58:40;22.93;;;12.07;;
9034;SDS011;4552;43.422;24.592;2022-11-10T07:01:09;19.93;;;11.80;;
9034;SDS011;4552;43.422;24.592;2022-11-10T07:03:40;19.60;;;12.87;;
9034;SDS011;4552;43.422;24.592;2022-11-10T07:06:08;19.77;;;11.50;;
9034;SDS011;4552;43.422;24.592;2022-11-10T07:08:37;19.47;;;11.03;;
9034;SDS011;4552;43.422;24.592;2022-11-10T07:11:05;20.20;;;11.87;;
9034;SDS011;4552;43.422;24.592;2022-11-10T07:13:34;21.60;;;11.93;;
9034;SDS011;4552;43.422;24.592;2022-11-10T07:16:05;26.57;;;14.07;;
9034;SDS011;4552;43.422;24.592;2022-11-10T07:18:33;24.83;;;13.13;;
9034;SDS011;4552;43.422;24.592;2022-11-10T07:21:01;34.92;;;18.63;;
9034;SDS011;4552;43.422;24.592;2022-11-10T07:23:34;23.73;;;13.93;;
9034;SDS011;4552;43.422;24.592;2022-11-10T07:26:01;19.77;;;12.43;;
9034;SDS011;4552;43.422;24.592;2022-11-10T07:28:31;23.93;;;14.70;;
9034;SDS011;4552;43.422;24.592;2022-11-10T07:31:05;18.27;;;12.37;;
9034;SDS011;4552;43.422;24.592;2022-11-10T07:33:32;20.50;;;12.60;;
9034;SDS011;4552;43.422;24.592;2022-11-10T07:36:00;27.17;;;14.00;;
9034;SDS011;4552;43.422;24.592;2022-11-10T07:38:33;23.77;;;13.27;;
9034;SDS011;4552;43.422;24.592;2022-11-10T07:41:00;25.63;;;13.60;;
9034;SDS011;4552;43.422;24.592;2022-11-10T07:43:30;28.00;;;13.43;;
9034;SDS011;4552;43.422;24.592;2022-11-10T07:46:02;18.63;;;12.10;;
9034;SDS011;4552;43.422;24.592;2022-11-10T07:48:29;21.77;;;11.93;;
9034;SDS011;4552;43.422;24.592;2022-11-10T07:51:00;20.13;;;12.27;;
9034;SDS011;4552;43.422;24.592;2022-11-10T07:53:30;17.67;;;11.97;;
9034;SDS011;4552;43.422;24.592;2022-11-10T07:55:58;19.47;;;12.10;;
9034;SDS011;4552;43.422;24.592;2022-11-10T07:58:26;19.20;;;12.40;;
9034;SDS011;4552;43.422;24.592;2022-11-10T08:00:57;19.53;;;12.13;;
9034;SDS011;4552;43.422;24.592;2022-11-10T08:03:26;19.53;;;11.70;;
9034;SDS011;4552;43.422;24.592;2022-11-10T08:05:58;18.80;;;11.97;;
9034;SDS011;4552;43.422;24.592;2022-11-10T08:08:29;18.30;;;11.83;;
9034;SDS011;4552;43.422;24.592;2022-11-10T08:10:57;17.23;;;11.50;;
9034;SDS011;4552;43.422;24.592;2022-11-10T08:13:27;15.47;;;11.10;;
9034;SDS011;4552;43.422;24.592;2022-11-10T08:15:54;18.73;;;10.83;;
9034;SDS011;4552;43.422;24.592;2022-11-10T08:18:27;16.17;;;10.57;;
9034;SDS011;4552;43.422;24.592;2022-11-10T08:20:54;22.00;;;11.63;;
9034;SDS011;4552;43.422;24.592;2022-11-10T08:23:38;17.77;;;11.70;;
9034;SDS011;4552;43.422;24.592;2022-11-10T08:26:08;17.03;;;11.50;;
9034;SDS011;4552;43.422;24.592;2022-11-10T08:28:40;27.27;;;15.90;;
9034;SDS011;4552;43.422;24.592;2022-11-10T08:31:10;19.93;;;12.63;;
9034;SDS011;4552;43.422;24.592;2022-11-10T08:33:40;19.33;;;11.77;;
9034;SDS011;4552;43.422;24.592;2022-11-10T08:36:07;23.63;;;13.07;;
9034;SDS011;4552;43.422;24.592;2022-11-10T08:38:39;17.10;;;11.43;;
9034;SDS011;4552;43.422;24.592;2022-11-10T08:41:09;22.93;;;11.50;;
9034;SDS011;4552;43.422;24.592;2022-11-10T08:43:40;21.23;;;13.10;;
9034;SDS011;4552;43.422;24.592;2022-11-10T08:46:07;31.67;;;14.23;;
9034;SDS011;4552;43.422;24.592;2022-11-10T08:48:36;21.50;;;12.03;;
9034;SDS011;4552;43.422;24.592;2022-11-10T08:51:07;25.37;;;15.43;;
9034;SDS011;4552;43.422;24.592;2022-11-10T08:53:36;21.77;;;14.23;;
9034;SDS011;4552;43.422;24.592;2022-11-10T08:56:03;15.13;;;9.97;;
9034;SDS011;4552;43.422;24.592;2022-11-10T08:58:34;16.53;;;10.50;;
9034;SDS011;4552;43.422;24.592;2022-11-10T09:01:07;14.13;;;10.17;;
9034;SDS011;4552;43.422;24.592;2022-11-10T09:03:38;15.67;;;10.03;;
9034;SDS011;4552;43.422;24.592;2022-11-10T09:06:16;15.90;;;9.27;;
9034;SDS011;4552;43.422;24.592;2022-11-10T09:08:49;17.87;;;9.30;;
9034;SDS011;4552;43.422;24.592;2022-11-10T09:11:25;17.63;;;10.47;;
9034;SDS011;4552;43.422;24.592;2022-11-10T09:13:55;14.90;;;9.40;;
9034;SDS011;4552;43.422;24.592;2022-11-10T09:16:37;17.23;;;9.37;;
9034;SDS011;4552;43.422;24.592;2022-11-10T09:19:14;14.37;;;9.87;;
9034;SDS011;4552;43.422;24.592;2022-11-10T09:21:46;13.60;;;9.93;;
9034;SDS011;4552;43.422;24.592;2022-11-10T09:24:15;15.20;;;9.40;;
9034;SDS011;4552;43.422;24.592;2022-11-10T09:26:44;16.20;;;9.53;;
9034;SDS011;4552;43.422;24.592;2022-11-10T09:29:17;16.60;;;10.13;;
9034;SDS011;4552;43.422;24.592;2022-11-10T09:31:45;16.33;;;10.43;;
9034;SDS011;4552;43.422;24.592;2022-11-10T09:37:40;33.47;;;19.87;;
9034;SDS011;4552;43.422;24.592;2022-11-10T09:40:08;15.20;;;9.83;;
9034;SDS011;4552;43.422;24.592;2022-11-10T09:42:51;16.50;;;10.77;;
9034;SDS011;4552;43.422;24.592;2022-11-10T09:45:25;14.13;;;9.50;;
9034;SDS011;4552;43.422;24.592;2022-11-10T09:48:02;14.93;;;9.37;;
9034;SDS011;4552;43.422;24.592;2022-11-10T09:50:35;12.20;;;9.07;;
9034;SDS011;4552;43.422;24.592;2022-11-10T09:53:11;15.73;;;9.83;;
9034;SDS011;4552;43.422;24.592;2022-11-10T09:55:45;17.40;;;10.23;;
9034;SDS011;4552;43.422;24.592;2022-11-10T09:58:17;15.90;;;9.87;;
9034;SDS011;4552;43.422;24.592;2022-11-10T10:01:02;14.47;;;9.23;;
9034;SDS011;4552;43.422;24.592;2022-11-10T10:03:43;13.17;;;8.80;;
9034;SDS011;4552;43.422;24.592;2022-11-10T10:06:14;17.17;;;10.03;;
9034;SDS011;4552;43.422;24.592;2022-11-10T10:08:51;14.07;;;9.47;;
9034;SDS011;4552;43.422;24.592;2022-11-10T10:11:34;14.93;;;9.80;;
9034;SDS011;4552;43.422;24.592;2022-11-10T10:14:16;15.03;;;9.77;;
9034;SDS011;4552;43.422;24.592;2022-11-10T10:16:57;16.83;;;10.13;;
9034;SDS011;4552;43.422;24.592;2022-11-10T10:19:31;14.80;;;10.10;;
9034;SDS011;4552;43.422;24.592;2022-11-10T10:22:21;16.07;;;10.27;;
9034;SDS011;4552;43.422;24.592;2022-11-10T10:25:02;14.37;;;8.97;;
9034;SDS011;4552;43.422;24.592;2022-11-10T10:27:39;16.47;;;10.40;;
9034;SDS011;4552;43.422;24.592;2022-11-10T10:30:13;15.47;;;10.20;;
9034;SDS011;4552;43.422;24.592;2022-11-10T10:32:41;16.33;;;10.30;;
9034;SDS011;4552;43.422;24.592;2022-11-10T10:35:13;18.13;;;11.32;;
9034;SDS011;4552;43.422;24.592;2022-11-10T10:37:43;13.00;;;9.63;;
9034;SDS011;4552;43.422;24.592;2022-11-10T10:40:18;14.40;;;9.13;;
9034;SDS011;4552;43.422;24.592;2022-11-10T10:42:47;14.23;;;8.97;;
9034;SDS011;4552;43.422;24.592;2022-11-10T10:45:15;13.17;;;8.87;;
9034;SDS011;4552;43.422;24.592;2022-11-10T10:47:51;17.97;;;10.10;;
9034;SDS011;4552;43.422;24.592;2022-11-10T10:50:33;15.47;;;9.60;;
9034;SDS011;4552;43.422;24.592;2022-11-10T10:53:04;20.00;;;13.13;;
9034;SDS011;4552;43.422;24.592;2022-11-10T10:55:54;13.90;;;10.63;;
9034;SDS011;4552;43.422;24.592;2022-11-10T10:58:28;15.07;;;9.53;;
9034;SDS011;4552;43.422;24.592;2022-11-10T11:01:01;12.77;;;8.30;;
9034;SDS011;4552;43.422;24.592;2022-11-10T11:03:38;14.80;;;9.43;;
9034;SDS011;4552;43.422;24.592;2022-11-10T11:06:23;12.87;;;9.27;;
9034;SDS011;4552;43.422;24.592;2022-11-10T11:08:56;16.43;;;10.60;;
9034;SDS011;4552;43.422;24.592;2022-11-10T11:11:30;14.87;;;9.53;;
9034;SDS011;4552;43.422;24.592;2022-11-10T11:14:16;15.07;;;9.97;;
9034;SDS011;4552;43.422;24.592;2022-11-10T11:16:48;12.30;;;9.43;;
9034;SDS011;4552;43.422;24.592;2022-11-10T11:19:31;13.13;;;9.57;;
9034;SDS011;4552;43.422;24.592;2022-11-10T11:22:05;18.57;;;10.03;;
9034;SDS011;4552;43.422;24.592;2022-11-10T11:24:52;13.97;;;9.53;;
9034;SDS011;4552;43.422;24.592;2022-11-10T11:27:29;16.45;;;11.40;;
9034;SDS011;4552;43.422;24.592;2022-11-10T11:30:08;15.07;;;10.17;;
9034;SDS011;4552;43.422;24.592;2022-11-10T11:32:55;13.90;;;8.93;;
9034;SDS011;4552;43.422;24.592;2022-11-10T11:35:41;12.73;;;8.60;;
9034;SDS011;4552;43.422;24.592;2022-11-10T11:38:15;13.10;;;8.47;;
9034;SDS011;4552;43.422;24.592;2022-11-10T11:40:48;11.30;;;8.70;;
9034;SDS011;4552;43.422;24.592;2022-11-10T11:43:27;14.13;;;8.47;;
9034;SDS011;4552;43.422;24.592;2022-11-10T11:46:16;13.27;;;8.33;;
9034;SDS011;4552;43.422;24.592;2022-11-10T11:49:15;12.67;;;8.13;;
9034;SDS011;4552;43.422;24.592;2022-11-10T11:55:00;13.97;;;8.40;;
9034;SDS011;4552;43.422;24.592;2022-11-10T11:57:59;13.80;;;8.87;;
9034;SDS011;4552;43.422;24.592;2022-11-10T12:01:05;15.20;;;8.97;;
9034;SDS011;4552;43.422;24.592;2022-11-10T12:03:57;13.00;;;8.30;;
9034;SDS011;4552;43.422;24.592;2022-11-10T12:07:20;12.67;;;8.80;;
9034;SDS011;4552;43.422;24.592;2022-11-10T12:10:47;12.03;;;8.33;;
9034;SDS011;4552;43.422;24.592;2022-11-10T12:19:06;13.87;;;8.83;;
9034;SDS011;4552;43.422;24.592;2022-11-10T12:21:54;16.13;;;9.37;;
9034;SDS011;4552;43.422;24.592;2022-11-10T12:24:48;11.17;;;8.30;;
9034;SDS011;4552;43.422;24.592;2022-11-10T12:27:36;15.37;;;8.90;;
9034;SDS011;4552;43.422;24.592;2022-11-10T12:30:22;16.00;;;8.63;;
9034;SDS011;4552;43.422;24.592;2022-11-10T12:32:53;12.20;;;7.87;;
9034;SDS011;4552;43.422;24.592;2022-11-10T12:35:32;13.80;;;8.40;;
9034;SDS011;4552;43.422;24.592;2022-11-10T12:38:19;17.23;;;11.17;;
9034;SDS011;4552;43.422;24.592;2022-11-10T12:40:53;16.73;;;11.73;;
9034;SDS011;4552;43.422;24.592;2022-11-10T12:43:32;18.37;;;8.43;;
9034;SDS011;4552;43.422;24.592;2022-11-10T12:46:06;15.67;;;11.27;;
9034;SDS011;4552;43.422;24.592;2022-11-10T12:48:52;17.57;;;12.10;;
9034;SDS011;4552;43.422;24.592;2022-11-10T12:51:30;15.03;;;12.80;;
9034;SDS011;4552;43.422;24.592;2022-11-10T12:54:06;15.63;;;11.53;;
9034;SDS011;4552;43.422;24.592;2022-11-10T12:56:36;15.30;;;12.67;;
9034;SDS011;4552;43.422;24.592;2022-11-10T12:59:20;16.70;;;11.90;;
9034;SDS011;4552;43.422;24.592;2022-11-10T13:01:57;13.40;;;11.10;;
9034;SDS011;4552;43.422;24.592;2022-11-10T13:07:40;14.83;;;11.83;;
9034;SDS011;4552;43.422;24.592;2022-11-10T13:10:25;17.13;;;12.17;;
9034;SDS011;4552;43.422;24.592;2022-11-10T13:12:58;15.37;;;12.13;;
9034;SDS011;4552;43.422;24.592;2022-11-10T13:18:21;16.03;;;11.33;;
9034;SDS011;4552;43.422;24.592;2022-11-10T13:21:03;13.50;;;10.97;;
9034;SDS011;4552;43.422;24.592;2022-11-10T13:23:37;14.20;;;11.63;;
9034;SDS011;4552;43.422;24.592;2022-11-10T13:26:46;16.90;;;11.83;;
9034;SDS011;4552;43.422;24.592;2022-11-10T13:29:25;15.37;;;11.77;;
9034;SDS011;4552;43.422;24.592;2022-11-10T13:31:56;20.17;;;11.77;;
9034;SDS011;4552;43.422;24.592;2022-11-10T13:34:28;13.97;;;12.17;;
9034;SDS011;4552;43.422;24.592;2022-11-10T13:36:59;12.87;;;11.40;;
9034;SDS011;4552;43.422;24.592;2022-11-10T13:39:30;15.17;;;10.47;;
9034;SDS011;4552;43.422;24.592;2022-11-10T13:42:12;14.60;;;11.03;;
9034;SDS011;4552;43.422;24.592;2022-11-10T13:44:45;15.33;;;9.97;;
9034;SDS011;4552;43.422;24.592;2022-11-10T13:47:26;13.70;;;10.77;;
9034;SDS011;4552;43.422;24.592;2022-11-10T13:50:24;13.03;;;10.53;;
9034;SDS011;4552;43.422;24.592;2022-11-10T13:53:29;15.33;;;10.50;;
9034;SDS011;4552;43.422;24.592;2022-11-10T13:56:16;11.93;;;9.63;;
9034;SDS011;4552;43.422;24.592;2022-11-10T13:58:54;12.10;;;10.80;;
9034;SDS011;4552;43.422;24.592;2022-11-10T14:01:27;13.00;;;10.43;;
9034;SDS011;4552;43.422;24.592;2022-11-10T14:03:58;12.47;;;11.17;;
9034;SDS011;4552;43.422;24.592;2022-11-10T14:06:29;12.13;;;10.23;;
9034;SDS011;4552;43.422;24.592;2022-11-10T14:09:14;15.97;;;10.97;;
9034;SDS011;4552;43.422;24.592;2022-11-10T14:11:54;14.77;;;9.97;;
9034;SDS011;4552;43.422;24.592;2022-11-10T14:14:28;12.70;;;9.97;;
9034;SDS011;4552;43.422;24.592;2022-11-10T14:17:12;11.70;;;10.50;;
9034;SDS011;4552;43.422;24.592;2022-11-10T14:19:46;16.03;;;10.40;;
9034;SDS011;4552;43.422;24.592;2022-11-10T14:22:20;14.50;;;11.97;;
9034;SDS011;4552;43.422;24.592;2022-11-10T14:24:53;13.23;;;10.67;;
9034;SDS011;4552;43.422;24.592;2022-11-10T14:27:38;12.97;;;11.37;;
9034;SDS011;4552;43.422;24.592;2022-11-10T14:30:21;14.77;;;9.55;;
9034;SDS011;4552;43.422;24.592;2022-11-10T14:40:50;10.73;;;8.13;;
9034;SDS011;4552;43.422;24.592;2022-11-10T14:43:37;10.50;;;8.33;;
9034;SDS011;4552;43.422;24.592;2022-11-10T14:46:06;15.93;;;8.40;;
9034;SDS011;4552;43.422;24.592;2022-11-10T14:48:40;11.93;;;8.20;;
9034;SDS011;4552;43.422;24.592;2022-11-10T14:51:21;10.90;;;7.73;;
9034;SDS011;4552;43.422;24.592;2022-11-10T14:53:51;12.77;;;8.37;;
9034;SDS011;4552;43.422;24.592;2022-11-10T14:56:26;22.93;;;9.80;;
9034;SDS011;4552;43.422;24.592;2022-11-10T14:59:00;14.07;;;8.57;;
9034;SDS011;4552;43.422;24.592;2022-11-10T15:01:32;12.23;;;8.57;;
9034;SDS011;4552;43.422;24.592;2022-11-10T15:04:04;13.77;;;8.40;;
9034;SDS011;4552;43.422;24.592;2022-11-10T15:06:32;23.77;;;12.33;;
9034;SDS011;4552;43.422;24.592;2022-11-10T15:09:13;12.93;;;9.37;;
9034;SDS011;4552;43.422;24.592;2022-11-10T15:11:46;23.83;;;11.20;;
9034;SDS011;4552;43.422;24.592;2022-11-10T15:14:35;18.37;;;10.70;;
9034;SDS011;4552;43.422;24.592;2022-11-10T15:17:07;12.87;;;8.20;;
9034;SDS011;4552;43.422;24.592;2022-11-10T15:19:36;13.17;;;8.13;;
9034;SDS011;4552;43.422;24.592;2022-11-10T15:22:18;13.73;;;8.13;;
9034;SDS011;4552;43.422;24.592;2022-11-10T15:24:49;11.23;;;7.87;;
9034;SDS011;4552;43.422;24.592;2022-11-10T15:27:27;11.23;;;7.77;;
9034;SDS011;4552;43.422;24.592;2022-11-10T15:32:33;12.00;;;8.00;;
9034;SDS011;4552;43.422;24.592;2022-11-10T15:35:07;18.23;;;16.17;;
9034;SDS011;4552;43.422;24.592;2022-11-10T15:40:41;18.07;;;15.00;;
9034;SDS011;4552;43.422;24.592;2022-11-10T15:43:13;17.37;;;15.70;;
9034;SDS011;4552;43.422;24.592;2022-11-10T15:50:53;18.80;;;16.10;;
9034;SDS011;4552;43.422;24.592;2022-11-10T15:53:23;16.37;;;14.77;;
9034;SDS011;4552;43.422;24.592;2022-11-10T15:55:54;18.53;;;16.53;;
9034;SDS011;4552;43.422;24.592;2022-11-10T15:58:21;22.10;;;17.33;;